createdAt,value
2018-09-10T00:00:58.098Z,16.12
2018-09-10T00:03:26.749Z,16.11
2018-09-10T00:05:55.189Z,16.10
2018-09-10T00:08:23.621Z,16.10
2018-09-10T00:10:52.273Z,16.10
2018-09-10T00:13:20.722Z,16.10
2018-09-10T00:15:49.581Z,16.09
2018-09-10T00:18:18.034Z,16.08
2018-09-10T00:20:46.586Z,16.08
2018-09-10T00:23:15.030Z,16.04
2018-09-10T00:25:43.523Z,16.07
2018-09-10T00:28:11.950Z,16.06
2018-09-10T00:30:40.982Z,16.05
2018-09-10T00:33:09.472Z,16.04
2018-09-10T00:35:37.908Z,16.02
2018-09-10T00:38:06.353Z,16.00
2018-09-10T00:40:35.137Z,15.99
2018-09-10T00:43:03.618Z,16.00
2018-09-10T00:45:32.070Z,15.99
2018-09-10T00:48:00.887Z,15.96
2018-09-10T00:50:29.329Z,15.93
2018-09-10T00:52:57.961Z,15.94
2018-09-10T00:55:26.425Z,15.94
2018-09-10T00:57:54.870Z,15.93
2018-09-10T01:00:23.749Z,15.94
2018-09-10T01:02:52.682Z,15.95
2018-09-10T01:05:21.161Z,15.95
2018-09-10T01:07:49.713Z,15.97
2018-09-10T01:10:18.216Z,15.94
2018-09-10T01:12:46.981Z,15.94
2018-09-10T01:15:15.470Z,15.90
2018-09-10T01:17:43.988Z,15.89
2018-09-10T01:20:12.703Z,15.88
2018-09-10T01:22:41.142Z,15.86
2018-09-10T01:25:10.861Z,15.84
2018-09-10T01:27:39.583Z,15.82
2018-09-10T01:30:08.718Z,15.81
2018-09-10T01:32:38.169Z,15.80
2018-09-10T01:35:07.708Z,15.79
2018-09-10T01:37:36.649Z,15.78
2018-09-10T01:40:05.735Z,15.18
2018-09-10T01:42:34.185Z,15.75
2018-09-10T01:45:03.225Z,15.76
2018-09-10T01:47:31.997Z,15.75
2018-09-10T01:50:00.457Z,15.75
2018-09-10T01:52:29.402Z,15.73
2018-09-10T01:54:58.069Z,15.70
2018-09-10T01:57:26.501Z,15.68
2018-09-10T01:59:54.935Z,15.66
2018-09-10T02:02:23.470Z,15.64
2018-09-10T02:04:52.234Z,15.63
2018-09-10T02:07:20.670Z,15.60
2018-09-10T02:09:49.144Z,15.59
2018-09-10T02:12:22.899Z,15.56
2018-09-10T02:14:51.905Z,15.56
2018-09-10T02:17:20.373Z,15.55
2018-09-10T02:19:48.813Z,15.53
2018-09-10T02:22:17.586Z,15.51
2018-09-10T02:24:46.027Z,15.51
2018-09-10T02:27:14.490Z,15.49
2018-09-10T02:29:42.983Z,15.48
2018-09-10T02:32:11.602Z,15.46
2018-09-10T02:34:40.511Z,15.47
2018-09-10T02:37:09.245Z,15.48
2018-09-10T02:39:37.701Z,15.47
2018-09-10T02:42:06.462Z,15.44
2018-09-10T02:44:35.242Z,15.43
2018-09-10T02:47:03.681Z,15.43
2018-09-10T02:49:32.396Z,15.42
2018-09-10T02:52:01.033Z,15.40
2018-09-10T02:54:29.458Z,15.40
2018-09-10T02:56:58.103Z,15.37
2018-09-10T02:59:26.732Z,15.35
2018-09-10T03:01:55.170Z,15.32
2018-09-10T03:04:23.617Z,15.32
2018-09-10T03:06:52.789Z,15.30
2018-09-10T03:09:21.215Z,15.29
2018-09-10T03:11:49.941Z,15.28
2018-09-10T03:14:18.581Z,15.28
2018-09-10T03:16:47.023Z,15.26
2018-09-10T03:19:15.493Z,15.25
2018-09-10T03:21:47.317Z,15.25
2018-09-10T03:24:15.928Z,15.23
2018-09-10T03:26:44.365Z,15.21
2018-09-10T03:29:12.796Z,15.19
2018-09-10T03:31:41.237Z,15.18
2018-09-10T03:34:10.607Z,15.18
2018-09-10T03:36:40.369Z,15.20
2018-09-10T03:39:10.149Z,15.17
2018-09-10T03:41:38.691Z,15.14
2018-09-10T03:44:07.453Z,15.14
2018-09-10T03:46:35.889Z,15.11
2018-09-10T03:49:04.367Z,15.11
2018-09-10T03:51:32.812Z,15.11
2018-09-10T03:54:01.239Z,15.11
2018-09-10T03:56:29.771Z,15.10
2018-09-10T03:58:58.349Z,15.10
2018-09-10T04:01:26.797Z,15.09
2018-09-10T04:03:55.285Z,15.08
2018-09-10T04:06:23.721Z,15.04
2018-09-10T04:08:52.250Z,15.00
2018-09-10T04:11:20.856Z,14.94
2018-09-10T04:13:49.301Z,14.91
2018-09-10T04:16:17.769Z,14.89
2018-09-10T04:18:47.137Z,14.87
2018-09-10T04:21:15.623Z,14.84
2018-09-10T04:23:44.603Z,14.83
2018-09-10T04:26:13.097Z,14.81
2018-09-10T04:28:41.523Z,14.80
2018-09-10T04:31:10.058Z,14.80
2018-09-10T04:33:38.785Z,14.83
2018-09-10T04:36:07.280Z,14.86
2018-09-10T04:38:36.372Z,14.87
2018-09-10T04:41:04.886Z,14.90
2018-09-10T04:43:33.323Z,14.94
2018-09-10T04:46:02.002Z,14.94
2018-09-10T04:48:30.590Z,14.96
2018-09-10T04:50:59.018Z,14.98
2018-09-10T04:53:27.554Z,14.98
2018-09-10T04:55:56.036Z,14.99
2018-09-10T04:58:24.501Z,15.02
2018-09-10T05:00:53.146Z,15.04
2018-09-10T05:03:21.645Z,15.10
2018-09-10T05:05:50.173Z,15.18
2018-09-10T05:08:18.610Z,15.25
2018-09-10T05:10:47.308Z,15.31
2018-09-10T05:13:15.738Z,15.38
2018-09-10T05:15:51.242Z,15.46
2018-09-10T05:18:19.689Z,15.55
2018-09-10T05:20:48.209Z,15.62
2018-09-10T05:23:16.896Z,15.67
2018-09-10T05:25:45.558Z,15.73
2018-09-10T05:28:14.038Z,15.78
2018-09-10T05:30:42.475Z,15.85
2018-09-10T05:33:11.060Z,15.93
2018-09-10T05:35:39.506Z,15.99
2018-09-10T05:38:08.682Z,16.04
2018-09-10T05:40:38.656Z,16.10
2018-09-10T05:43:07.086Z,16.17
2018-09-10T05:45:35.699Z,16.24
2018-09-10T05:48:04.160Z,16.30
2018-09-10T05:50:32.594Z,16.38
2018-09-10T05:53:01.090Z,16.41
2018-09-10T05:55:29.577Z,16.48
2018-09-10T05:57:57.984Z,16.56
2018-09-10T06:00:26.691Z,16.60
2018-09-10T06:02:55.546Z,16.66
2018-09-10T06:05:23.986Z,16.72
2018-09-10T06:07:52.546Z,16.77
2018-09-10T06:10:21.025Z,16.83
2018-09-10T06:12:49.462Z,16.88
2018-09-10T06:15:17.968Z,16.94
2018-09-10T06:17:46.415Z,16.99
2018-09-10T06:20:14.947Z,17.04
2018-09-10T06:22:43.414Z,17.09
2018-09-10T06:25:11.858Z,17.13
2018-09-10T06:27:40.440Z,17.17
2018-09-10T06:30:09.011Z,17.24
2018-09-10T06:32:37.980Z,17.31
2018-09-10T06:35:06.484Z,17.39
2018-09-10T06:37:35.008Z,17.51
2018-09-10T06:40:03.479Z,17.55
2018-09-10T06:42:32.047Z,17.61
2018-09-10T06:45:00.794Z,17.69
2018-09-10T06:47:29.233Z,17.80
2018-09-10T06:49:57.680Z,18.01
2018-09-10T06:52:26.134Z,18.11
2018-09-10T06:54:54.593Z,18.28
2018-09-10T06:57:23.049Z,18.59
2018-09-10T06:59:51.564Z,18.88
2018-09-10T07:02:26.535Z,19.03
2018-09-10T07:04:55.536Z,19.29
2018-09-10T07:07:23.975Z,19.51
2018-09-10T07:09:52.449Z,19.67
2018-09-10T07:12:20.917Z,19.83
2018-09-10T07:14:49.337Z,19.83
2018-09-10T07:17:17.773Z,19.70
2018-09-10T07:19:46.214Z,19.63
2018-09-10T07:22:14.665Z,19.43
2018-09-10T07:24:43.142Z,19.28
2018-09-10T07:27:11.605Z,19.20
2018-09-10T07:29:40.102Z,19.15
2018-09-10T07:32:08.576Z,19.04
2018-09-10T07:34:37.391Z,19.05
2018-09-10T07:37:05.803Z,19.02
2018-09-10T07:39:34.230Z,18.95
2018-09-10T07:42:02.781Z,18.90
2018-09-10T07:44:31.297Z,18.91
2018-09-10T07:46:59.793Z,18.95
2018-09-10T07:49:28.317Z,18.97
2018-09-10T07:51:56.841Z,18.94
2018-09-10T07:54:25.359Z,18.99
2018-09-10T07:56:53.742Z,19.06
2018-09-10T07:59:22.437Z,19.20
2018-09-10T08:01:50.869Z,19.29
2018-09-10T08:04:19.561Z,18.68
2018-09-10T08:06:48.141Z,19.48
2018-09-10T08:09:16.683Z,19.64
2018-09-10T08:11:45.407Z,19.81
2018-09-10T08:14:13.933Z,19.91
2018-09-10T08:16:42.938Z,20.03
2018-09-10T08:19:11.471Z,20.22
2018-09-10T08:21:39.934Z,20.44
2018-09-10T08:24:08.409Z,20.46
2018-09-10T08:26:36.849Z,20.54
2018-09-10T08:29:05.547Z,20.40
2018-09-10T08:31:34.368Z,20.35
2018-09-10T08:34:02.844Z,20.30
2018-09-10T08:36:31.307Z,20.29
2018-09-10T08:38:59.773Z,20.35
2018-09-10T08:41:28.425Z,20.48
2018-09-10T08:43:57.136Z,20.76
2018-09-10T08:46:25.824Z,21.24
2018-09-10T08:48:54.363Z,21.48
2018-09-10T08:51:22.857Z,21.57
2018-09-10T08:53:51.296Z,21.46
2018-09-10T08:56:19.968Z,21.23
2018-09-10T08:58:48.244Z,20.97
2018-09-10T09:01:16.686Z,21.24
2018-09-10T09:03:45.157Z,21.32
2018-09-10T09:06:13.826Z,21.22
2018-09-10T09:08:43.106Z,21.03
2018-09-10T09:11:12.706Z,20.83
2018-09-10T09:13:41.133Z,20.72
2018-09-10T09:16:09.614Z,20.59
2018-09-10T09:18:38.173Z,20.43
2018-09-10T09:21:06.643Z,20.34
2018-09-10T09:23:35.657Z,20.18
2018-09-10T09:26:04.069Z,19.99
2018-09-10T09:28:32.498Z,19.88
2018-09-10T09:31:00.934Z,19.89
2018-09-10T09:33:29.818Z,19.27
2018-09-10T09:36:03.465Z,19.83
2018-09-10T09:38:37.366Z,19.80
2018-09-10T09:41:10.969Z,19.90
2018-09-10T09:43:44.663Z,19.97
2018-09-10T09:46:15.233Z,19.92
2018-09-10T09:48:44.418Z,19.97
2018-09-10T09:51:12.928Z,20.07
2018-09-10T09:53:41.781Z,20.18
2018-09-10T09:56:10.734Z,20.37
2018-09-10T09:58:39.149Z,20.58
2018-09-10T10:01:13.009Z,20.65
2018-09-10T10:03:47.121Z,20.57
2018-09-10T10:06:15.590Z,20.40
2018-09-10T10:08:44.743Z,20.40
2018-09-10T10:11:13.457Z,20.34
2018-09-10T10:13:41.968Z,20.32
2018-09-10T10:16:10.573Z,20.39
2018-09-10T10:18:39.002Z,20.43
2018-09-10T10:21:07.586Z,20.40
2018-09-10T10:23:36.153Z,20.45
2018-09-10T10:26:04.938Z,20.38
2018-09-10T10:28:33.992Z,20.32
2018-09-10T10:31:02.641Z,20.25
2018-09-10T10:33:31.133Z,20.11
2018-09-10T10:35:59.808Z,20.00
2018-09-10T10:38:28.245Z,19.99
2018-09-10T10:40:56.937Z,20.15
2018-09-10T10:43:25.925Z,20.23
2018-09-10T10:45:54.371Z,20.28
2018-09-10T10:48:22.803Z,20.31
2018-09-10T10:50:51.981Z,20.29
2018-09-10T10:53:20.446Z,20.32
2018-09-10T10:55:48.881Z,20.30
2018-09-10T10:58:17.590Z,20.29
2018-09-10T11:00:46.110Z,20.35
2018-09-10T11:03:14.545Z,20.40
2018-09-10T11:05:43.003Z,20.45
2018-09-10T11:08:11.533Z,20.30
2018-09-10T11:10:40.125Z,20.13
2018-09-10T11:13:08.726Z,20.06
2018-09-10T11:15:37.161Z,19.99
2018-09-10T11:18:06.080Z,20.01
2018-09-10T11:20:34.572Z,20.13
2018-09-10T11:23:03.016Z,20.15
2018-09-10T11:25:31.596Z,20.18
2018-09-10T11:28:00.421Z,20.20
2018-09-10T11:30:28.842Z,20.19
2018-09-10T11:32:57.483Z,20.24
2018-09-10T11:35:25.955Z,20.32
2018-09-10T11:37:54.397Z,20.44
2018-09-10T11:40:22.825Z,20.52
2018-09-10T11:42:51.546Z,20.52
2018-09-10T11:45:20.013Z,20.40
2018-09-10T11:47:48.481Z,20.49
2018-09-10T11:50:17.152Z,20.51
2018-09-10T11:52:45.641Z,20.33
2018-09-10T11:55:14.092Z,20.15
2018-09-10T11:57:42.572Z,20.14
2018-09-10T12:00:11.679Z,20.33
2018-09-10T12:02:40.138Z,20.47
2018-09-10T12:05:08.654Z,20.43
2018-09-10T12:07:37.661Z,20.40
2018-09-10T12:10:06.474Z,20.34
2018-09-10T12:12:41.589Z,20.32
2018-09-10T12:15:10.636Z,20.34
2018-09-10T12:17:39.093Z,20.47
2018-09-10T12:20:07.656Z,20.49
2018-09-10T12:22:42.867Z,20.34
2018-09-10T12:25:12.230Z,20.22
2018-09-10T12:27:40.666Z,20.18
2018-09-10T12:30:09.133Z,20.10
2018-09-10T12:32:37.570Z,20.06
2018-09-10T12:35:06.019Z,20.04
2018-09-10T12:37:34.394Z,20.02
2018-09-10T12:40:02.805Z,19.94
2018-09-10T12:42:31.178Z,19.84
2018-09-10T12:45:00.014Z,19.80
2018-09-10T12:47:28.430Z,19.78
2018-09-10T12:49:56.819Z,19.77
2018-09-10T12:52:25.203Z,19.80
2018-09-10T12:54:53.639Z,19.83
2018-09-10T12:57:22.035Z,19.59
2018-09-10T12:59:50.511Z,19.68
2018-09-10T13:02:19.004Z,19.67
2018-09-10T13:04:47.391Z,19.66
2018-09-10T13:07:15.814Z,19.59
2018-09-10T13:09:44.222Z,19.39
2018-09-10T13:12:13.386Z,19.09
2018-09-10T13:14:41.986Z,18.89
2018-09-10T13:17:10.482Z,18.79
2018-09-10T13:19:38.884Z,18.72
2018-09-10T13:22:07.287Z,18.69
2018-09-10T13:24:35.987Z,18.72
2018-09-10T13:27:04.373Z,18.81
2018-09-10T13:29:32.752Z,18.87
2018-09-10T13:32:01.146Z,18.94
2018-09-10T13:34:29.527Z,19.00
2018-09-10T13:36:57.920Z,19.09
2018-09-10T13:39:26.492Z,19.14
2018-09-10T13:41:54.903Z,19.24
2018-09-10T13:44:23.302Z,19.35
2018-09-10T13:46:51.834Z,19.42
2018-09-10T13:49:20.298Z,19.47
2018-09-10T13:51:48.710Z,19.54
2018-09-10T13:54:17.259Z,19.56
2018-09-10T13:56:45.698Z,19.55
2018-09-10T13:59:14.120Z,19.53
2018-09-10T14:01:42.596Z,19.50
2018-09-10T14:04:11.930Z,19.50
2018-09-10T14:06:41.189Z,19.48
2018-09-10T14:09:09.869Z,19.46
2018-09-10T14:11:38.698Z,19.46
2018-09-10T14:14:07.676Z,19.41
2018-09-10T14:16:36.250Z,19.35
2018-09-10T14:19:04.658Z,19.25
2018-09-10T14:21:33.097Z,18.94
2018-09-10T14:24:01.533Z,18.66
2018-09-10T14:26:30.047Z,18.45
2018-09-10T14:28:58.445Z,18.23
2018-09-10T14:31:26.866Z,18.07
2018-09-10T14:33:55.246Z,17.95
2018-09-10T14:36:23.658Z,17.84
2018-09-10T14:38:52.100Z,17.74
2018-09-10T14:41:20.503Z,17.69
2018-09-10T14:43:49.015Z,17.63
2018-09-10T14:46:17.496Z,17.56
2018-09-10T14:48:46.386Z,17.51
2018-09-10T14:51:14.774Z,17.47
2018-09-10T14:53:43.234Z,17.46
2018-09-10T14:56:12.304Z,17.38
2018-09-10T14:58:40.691Z,17.33
2018-09-10T15:01:09.118Z,17.28
2018-09-10T15:03:37.499Z,17.19
2018-09-10T15:06:05.896Z,17.14
2018-09-10T15:08:34.407Z,17.09
2018-09-10T15:11:02.786Z,17.06
2018-09-10T15:13:31.332Z,17.01
2018-09-10T15:15:59.762Z,17.02
2018-09-10T15:18:28.369Z,17.03
2018-09-10T15:20:56.715Z,16.84
2018-09-10T15:23:25.183Z,16.98
2018-09-10T15:25:53.578Z,16.96
2018-09-10T15:28:22.289Z,16.90
2018-09-10T15:30:50.699Z,16.84
2018-09-10T15:33:25.743Z,16.81
2018-09-10T15:35:54.191Z,16.73
2018-09-10T15:38:29.582Z,16.66
2018-09-10T15:40:58.063Z,16.63
2018-09-10T15:43:26.450Z,16.58
2018-09-10T15:45:54.849Z,16.52
2018-09-10T15:48:23.440Z,16.48
2018-09-10T15:50:52.060Z,16.29
2018-09-10T15:53:20.668Z,16.39
2018-09-10T15:55:49.114Z,16.37
2018-09-10T15:58:17.619Z,16.35
2018-09-10T16:00:46.142Z,16.33
2018-09-10T16:03:14.598Z,16.32
2018-09-10T16:05:43.004Z,16.31
2018-09-10T16:08:12.086Z,16.30
2018-09-10T16:10:40.785Z,16.30
2018-09-10T16:13:09.223Z,16.29
2018-09-10T16:15:37.643Z,16.28
2018-09-10T16:18:06.403Z,16.22
2018-09-10T16:20:34.931Z,16.16
2018-09-10T16:23:03.330Z,16.17
2018-09-10T16:25:32.113Z,16.15
2018-09-10T16:28:00.602Z,16.15
2018-09-10T16:30:30.122Z,16.16
2018-09-10T16:32:58.605Z,16.17
2018-09-10T16:35:27.007Z,16.21
2018-09-10T16:37:55.423Z,16.25
2018-09-10T16:40:24.682Z,16.29
2018-09-10T16:42:53.090Z,16.33
2018-09-10T16:45:21.508Z,16.38
2018-09-10T16:47:49.986Z,16.39
2018-09-10T16:50:19.070Z,16.41
2018-09-10T16:52:47.942Z,16.43
2018-09-10T16:55:16.518Z,16.45
2018-09-10T16:57:44.926Z,16.47
2018-09-10T17:00:13.366Z,16.45
2018-09-10T17:02:42.724Z,16.45
2018-09-10T17:05:11.130Z,16.45
2018-09-10T17:07:39.610Z,16.47
2018-09-10T17:10:08.088Z,16.47
2018-09-10T17:12:36.515Z,16.46
2018-09-10T17:15:05.442Z,16.43
2018-09-10T17:17:33.870Z,16.39
2018-09-10T17:20:02.289Z,16.37
2018-09-10T17:22:30.894Z,16.35
2018-09-10T17:24:59.302Z,16.31
2018-09-10T17:27:27.740Z,16.29
2018-09-10T17:29:56.131Z,16.27
2018-09-10T17:32:25.171Z,16.26
2018-09-10T17:34:53.559Z,16.24
2018-09-10T17:37:22.044Z,16.25
2018-09-10T17:39:50.479Z,16.26
2018-09-10T17:42:18.857Z,16.27
2018-09-10T17:44:47.502Z,16.29
2018-09-10T17:47:22.331Z,16.31
2018-09-10T17:49:50.750Z,16.32
2018-09-10T17:52:19.136Z,16.33
2018-09-10T17:54:47.842Z,16.32
2018-09-10T17:57:16.250Z,16.31
2018-09-10T17:59:44.903Z,16.28
2018-09-10T18:02:13.319Z,16.24
2018-09-10T18:04:42.362Z,16.18
2018-09-10T18:07:10.779Z,16.15
2018-09-10T18:09:39.211Z,16.14
2018-09-10T18:12:07.639Z,16.12
2018-09-10T18:14:36.033Z,16.08
2018-09-10T18:17:04.481Z,16.05
2018-09-10T18:19:32.939Z,16.00
2018-09-10T18:22:01.349Z,15.96
2018-09-10T18:24:29.975Z,15.90
2018-09-10T18:26:58.362Z,15.86
2018-09-10T18:29:27.254Z,15.80
2018-09-10T18:31:55.679Z,15.75
2018-09-10T18:34:24.495Z,15.72
2018-09-10T18:36:52.907Z,15.69
2018-09-10T18:39:21.358Z,15.65
2018-09-10T18:41:49.766Z,15.62
2018-09-10T18:44:18.155Z,15.58
2018-09-10T18:46:46.699Z,15.53
2018-09-10T18:49:15.093Z,15.46
2018-09-10T18:51:43.498Z,15.27
2018-09-10T18:54:11.906Z,15.40
2018-09-10T18:56:41.600Z,15.35
2018-09-10T18:59:10.109Z,15.32
2018-09-10T19:01:38.623Z,15.30
2018-09-10T19:04:07.034Z,15.26
2018-09-10T19:06:35.456Z,15.23
2018-09-10T19:09:04.801Z,15.19
2018-09-10T19:11:33.385Z,15.17
2018-09-10T19:14:01.882Z,15.16
2018-09-10T19:16:30.304Z,15.12
2018-09-10T19:18:58.699Z,15.11
2018-09-10T19:21:27.135Z,15.09
2018-09-10T19:23:55.580Z,15.08
2018-09-10T19:26:24.298Z,15.06
2018-09-10T19:28:52.758Z,15.03
2018-09-10T19:31:21.255Z,15.00
2018-09-10T19:33:49.655Z,14.97
2018-09-10T19:36:18.138Z,14.94
2018-09-10T19:38:46.570Z,14.92
2018-09-10T19:41:14.970Z,14.91
2018-09-10T19:43:43.412Z,14.88
2018-09-10T19:46:11.864Z,14.87
2018-09-10T19:48:40.635Z,14.87
2018-09-10T19:51:09.042Z,14.84
2018-09-10T19:53:37.494Z,14.81
2018-09-10T19:56:05.914Z,14.78
2018-09-10T19:58:34.517Z,14.77
2018-09-10T20:01:02.957Z,14.74
2018-09-10T20:03:31.390Z,14.72
2018-09-10T20:05:59.802Z,14.69
2018-09-10T20:08:28.288Z,14.66
2018-09-10T20:10:56.699Z,14.64
2018-09-10T20:13:25.098Z,14.61
2018-09-10T20:15:53.713Z,14.59
2018-09-10T20:18:22.203Z,14.57
2018-09-10T20:23:25.295Z,14.51
2018-09-10T20:25:53.834Z,14.51
2018-09-10T20:28:22.827Z,14.54
2018-09-10T20:30:51.291Z,14.55
2018-09-10T20:33:20.186Z,14.57
2018-09-10T20:35:48.566Z,14.56
2018-09-10T20:38:17.446Z,14.57
2018-09-10T20:40:45.838Z,14.56
2018-09-10T20:43:14.775Z,14.56
2018-09-10T20:45:43.289Z,14.56
2018-09-10T20:48:12.706Z,14.55
2018-09-10T20:50:41.139Z,14.53
2018-09-10T20:53:09.654Z,14.55
2018-09-10T20:55:38.740Z,14.54
2018-09-10T20:58:07.138Z,14.53
2018-09-10T21:00:35.641Z,14.49
2018-09-10T21:03:04.903Z,14.49
2018-09-10T21:05:33.282Z,14.49
2018-09-10T21:08:01.727Z,14.49
2018-09-10T21:10:30.126Z,14.48
2018-09-10T21:12:58.579Z,14.48
2018-09-10T21:15:27.032Z,14.47
2018-09-10T21:17:55.475Z,14.47
2018-09-10T21:20:24.304Z,13.83
2018-09-10T21:22:53.170Z,14.46
2018-09-10T21:25:21.618Z,14.46
2018-09-10T21:27:50.006Z,14.44
2018-09-10T21:30:18.611Z,14.46
2018-09-10T21:32:47.026Z,14.45
2018-09-10T21:35:15.446Z,14.46
2018-09-10T21:37:44.042Z,14.45
2018-09-10T21:40:12.718Z,14.43
2018-09-10T21:42:41.171Z,14.41
2018-09-10T21:45:09.603Z,14.40
2018-09-10T21:47:37.990Z,14.42
2018-09-10T21:50:06.459Z,14.42
2018-09-10T21:52:35.067Z,14.41
2018-09-10T21:55:03.545Z,14.41
2018-09-10T21:57:31.939Z,14.40
2018-09-10T22:00:00.390Z,14.39
2018-09-10T22:02:36.086Z,14.40
2018-09-10T22:05:04.622Z,14.39
2018-09-10T22:07:33.225Z,14.31
2018-09-10T22:10:01.634Z,14.41
2018-09-10T22:12:30.087Z,14.41
2018-09-10T22:14:58.498Z,14.42
2018-09-10T22:17:26.902Z,14.43
2018-09-10T22:19:55.347Z,14.41
2018-09-10T22:22:23.802Z,14.42
2018-09-10T22:24:52.201Z,14.41
2018-09-10T22:27:20.830Z,14.40
2018-09-10T22:29:49.225Z,14.39
2018-09-10T22:32:17.807Z,14.38
2018-09-10T22:34:46.241Z,14.37
2018-09-10T22:37:14.635Z,14.37
2018-09-10T22:39:43.115Z,14.36
2018-09-10T22:42:11.651Z,14.33
2018-09-10T22:44:40.620Z,14.32
2018-09-10T22:47:09.011Z,14.30
2018-09-10T22:49:37.842Z,14.28
2018-09-10T22:52:06.280Z,14.29
2018-09-10T22:54:34.711Z,14.28
2018-09-10T22:57:03.147Z,14.27
2018-09-10T22:59:31.557Z,14.27
2018-09-10T23:01:59.938Z,14.25
2018-09-10T23:04:28.365Z,14.24
2018-09-10T23:06:56.758Z,14.25
2018-09-10T23:09:25.370Z,14.23
2018-09-10T23:11:53.774Z,14.22
2018-09-10T23:14:22.178Z,14.22
2018-09-10T23:16:50.568Z,14.22
2018-09-10T23:19:18.998Z,14.21
2018-09-10T23:21:47.382Z,14.22
2018-09-10T23:24:15.781Z,14.24
2018-09-10T23:26:44.319Z,14.24
2018-09-10T23:29:12.706Z,14.24
2018-09-10T23:31:41.090Z,14.24
2018-09-10T23:34:09.650Z,14.23
2018-09-10T23:36:38.101Z,14.22
2018-09-10T23:39:08.470Z,14.21
2018-09-10T23:41:36.927Z,14.20
2018-09-10T23:44:05.682Z,14.20
2018-09-10T23:46:34.162Z,14.18
2018-09-10T23:49:02.558Z,14.16
2018-09-10T23:51:30.961Z,14.14
2018-09-10T23:53:59.470Z,14.15
2018-09-10T23:56:27.922Z,14.13
2018-09-10T23:58:56.798Z,14.13
